Pacquet, Canada
Current Conditions -  °F | °C
As of 11:07 AM on Saturday 25 Oct 2014 (Local Time) from CWDH Reporting Station
Scattered Clouds Scattered Clouds  
Wind Chill: 33°   Ceiling: Unl
Heat Index: 40°   Visibility: 9mi
Dew Point: 34°   Wind: 14mph
Humidity: 79%   Direction: 50°NE
Pressure: 29.65"   Gusts: 20mph
Location:  50°N, 55.87°W
Report Text: CWDH 251307Z AUTO 05012G17KT 9SM SCT023 05/01 A2965 RMK PK WND 05019/// T00470013 WSI/SWOB
Loading
Personal Weather Stations






























Interactive Weather Map
Tropical Storm Tracking
New forecast layout! Learn more

10-Day Weather Forecast

Advertisements
Track Severe Weather on mobile